createdAt,value
2022-09-18T00:00:49.974Z,99285.59
2022-09-18T00:03:54.222Z,99277.75
2022-09-18T00:06:56.258Z,99291.44
2022-09-18T00:09:58.288Z,99281.03
2022-09-18T00:13:00.443Z,99281.69
2022-09-18T00:16:02.869Z,99272.84
2022-09-18T00:19:05.536Z,99274.56
2022-09-18T00:22:07.592Z,99273.75
2022-09-18T00:25:09.804Z,99273.41
2022-09-18T00:28:11.827Z,99257.13
2022-09-18T00:31:20.487Z,99267.88
2022-09-18T00:34:22.603Z,99286.59
2022-09-18T00:37:24.668Z,99259.28
2022-09-18T00:40:26.839Z,99267.97
2022-09-18T00:43:32.685Z,99258.59
2022-09-18T00:46:36.200Z,99270.00
2022-09-18T00:49:49.420Z,99268.34
2022-09-18T00:53:02.053Z,99229.31
2022-09-18T00:56:04.215Z,99278.66
2022-09-18T00:59:06.271Z,99256.31
2022-09-18T01:02:08.566Z,99282.25
2022-09-18T01:05:10.857Z,99276.81
2022-09-18T01:09:00.151Z,99275.00
2022-09-18T01:12:26.122Z,99279.34
2022-09-18T01:15:41.469Z,99274.06
2022-09-18T01:19:10.761Z,99271.22
2022-09-18T01:22:44.040Z,99254.38
2022-09-18T01:26:33.047Z,99248.31
2022-09-18T01:29:52.071Z,99253.84
2022-09-18T01:33:00.961Z,99244.81
2022-09-18T01:36:07.623Z,99250.53
2022-09-18T01:39:39.942Z,99241.75
2022-09-18T01:42:43.298Z,99243.34
2022-09-18T01:45:47.898Z,99235.69
2022-09-18T01:48:58.418Z,99229.69
2022-09-18T01:52:28.021Z,99216.50
2022-09-18T01:55:30.264Z,99205.81
2022-09-18T01:58:33.565Z,99207.22
2022-09-18T02:01:36.089Z,99214.13
2022-09-18T02:04:39.135Z,99208.13
2022-09-18T02:08:11.693Z,99217.00
2022-09-18T02:11:15.216Z,99215.66
2022-09-18T02:14:30.154Z,99209.84
2022-09-18T02:18:13.995Z,99207.16
2022-09-18T02:21:20.652Z,99209.66
2022-09-18T02:24:26.283Z,99212.41
2022-09-18T02:27:28.334Z,99213.44
2022-09-18T02:30:31.870Z,99218.53
2022-09-18T02:33:36.685Z,99202.38
2022-09-18T02:36:45.525Z,99200.56
2022-09-18T02:40:03.698Z,99202.19
2022-09-18T02:43:17.792Z,99190.41
2022-09-18T02:46:37.840Z,99191.34
2022-09-18T02:50:13.598Z,99180.00
2022-09-18T02:53:50.267Z,99188.84
2022-09-18T02:57:44.122Z,99199.63
2022-09-18T03:00:47.632Z,99193.16
2022-09-18T03:03:52.693Z,99187.94
2022-09-18T03:07:00.990Z,99186.03
2022-09-18T03:10:03.630Z,99195.38
2022-09-18T03:13:07.018Z,99182.41
2022-09-18T03:16:09.327Z,99191.81
2022-09-18T03:19:12.111Z,99186.91
2022-09-18T03:22:14.246Z,99190.69
2022-09-18T03:25:17.520Z,99182.88
2022-09-18T03:28:19.868Z,99153.53
2022-09-18T03:31:22.112Z,99163.72
2022-09-18T03:34:24.210Z,99177.88
2022-09-18T03:37:26.470Z,99177.13
2022-09-18T03:40:29.385Z,99182.38
2022-09-18T03:43:32.321Z,99183.41
2022-09-18T03:46:34.469Z,99170.22
2022-09-18T03:49:38.268Z,99164.84
2022-09-18T03:52:40.347Z,99162.38
2022-09-18T03:56:04.359Z,99160.13
2022-09-18T03:59:24.617Z,99169.31
2022-09-18T04:02:29.383Z,99170.50
2022-09-18T04:06:09.800Z,99167.47
2022-09-18T04:09:32.093Z,99162.69
2022-09-18T04:12:35.154Z,99166.91
2022-09-18T04:15:51.129Z,99163.66
2022-09-18T04:18:53.253Z,99152.06
2022-09-18T04:21:57.267Z,99166.25
2022-09-18T04:24:59.427Z,99159.69
2022-09-18T04:28:02.342Z,99171.91
2022-09-18T04:31:05.466Z,99173.22
2022-09-18T04:34:07.621Z,99151.38
2022-09-18T04:37:10.749Z,99149.31
2022-09-18T04:40:14.206Z,99137.94
2022-09-18T04:43:16.883Z,99144.72
2022-09-18T04:46:19.985Z,99133.06
2022-09-18T04:49:22.371Z,99134.25
2022-09-18T04:52:25.071Z,99134.22
2022-09-18T04:55:27.735Z,99154.69
2022-09-18T04:58:31.031Z,99146.31
2022-09-18T05:01:36.413Z,99146.00
2022-09-18T05:04:43.978Z,99167.94
2022-09-18T05:07:59.663Z,99159.25
2022-09-18T05:11:02.203Z,99163.31
2022-09-18T05:14:08.099Z,99167.47
2022-09-18T05:17:10.774Z,99175.88
2022-09-18T05:20:15.034Z,99175.44
2022-09-18T05:23:17.809Z,99168.56
2022-09-18T05:26:19.877Z,99157.47
2022-09-18T05:29:22.090Z,99179.28
2022-09-18T05:32:26.046Z,99175.28
2022-09-18T05:35:30.646Z,99175.84
2022-09-18T05:38:34.147Z,99172.38
2022-09-18T05:41:37.526Z,99173.28
2022-09-18T05:44:39.659Z,99155.25
2022-09-18T05:48:00.851Z,99173.97
2022-09-18T05:51:05.257Z,99137.13
2022-09-18T05:54:07.462Z,99172.28
2022-09-18T05:57:16.050Z,99171.63
2022-09-18T06:00:24.790Z,99181.47
2022-09-18T06:03:36.162Z,99183.25
2022-09-18T06:06:38.352Z,99190.09
2022-09-18T06:09:40.468Z,99194.19
2022-09-18T06:12:42.728Z,99186.25
2022-09-18T06:15:50.292Z,99200.69
2022-09-18T06:18:56.847Z,99197.88
2022-09-18T06:21:58.917Z,99194.00
2022-09-18T06:25:01.546Z,99202.06
2022-09-18T06:28:07.791Z,99187.81
2022-09-18T06:31:10.426Z,99200.91
2022-09-18T06:34:36.636Z,99213.69
2022-09-18T06:37:42.058Z,99214.66
2022-09-18T06:40:58.093Z,99208.25
2022-09-18T06:44:08.698Z,99206.41
2022-09-18T06:47:24.147Z,99216.81
2022-09-18T06:50:26.320Z,99195.25
2022-09-18T06:53:28.640Z,99213.56
2022-09-18T06:56:36.000Z,99214.97
2022-09-18T06:59:38.598Z,99202.69
2022-09-18T07:02:42.217Z,99232.63
2022-09-18T07:06:10.339Z,99225.03
2022-09-18T07:09:21.994Z,99222.69
2022-09-18T07:12:37.622Z,99220.91
2022-09-18T07:15:41.702Z,99234.22
2022-09-18T07:18:48.349Z,99226.75
2022-09-18T07:21:53.927Z,99209.88
2022-09-18T07:24:56.043Z,99221.22
2022-09-18T07:28:08.233Z,99219.00
2022-09-18T07:31:16.698Z,99228.41
2022-09-18T07:34:20.032Z,99236.66
2022-09-18T07:37:22.343Z,99231.75
2022-09-18T07:40:33.858Z,99230.44
2022-09-18T07:43:43.771Z,99224.81
2022-09-18T07:46:46.044Z,99225.22
2022-09-18T07:49:48.270Z,99232.06
2022-09-18T07:52:56.461Z,99227.09
2022-09-18T07:56:10.021Z,99230.28
2022-09-18T07:59:12.635Z,99233.03
2022-09-18T08:02:15.272Z,99241.59
2022-09-18T08:05:17.602Z,99236.75
2022-09-18T08:08:30.095Z,99224.88
2022-09-18T08:11:52.690Z,99238.94
2022-09-18T08:15:02.486Z,99237.91
2022-09-18T08:18:22.865Z,99245.78
2022-09-18T08:21:43.289Z,99232.41
2022-09-18T08:24:48.019Z,99245.28
2022-09-18T08:27:50.449Z,99228.94
2022-09-18T08:31:01.936Z,99245.78
2022-09-18T08:34:04.229Z,99234.59
2022-09-18T08:37:07.055Z,99243.91
2022-09-18T08:41:05.817Z,99234.03
2022-09-18T08:44:18.456Z,99241.16
2022-09-18T08:47:43.380Z,99253.56
2022-09-18T08:51:16.949Z,99260.38
2022-09-18T08:54:49.292Z,99259.69
2022-09-18T08:58:24.604Z,99239.22
2022-09-18T09:01:43.378Z,99267.44
2022-09-18T09:04:49.489Z,99269.63
2022-09-18T09:08:23.239Z,99266.16
2022-09-18T09:12:24.296Z,99271.72
2022-09-18T09:16:01.582Z,99267.75
2022-09-18T09:19:45.231Z,99274.13
2022-09-18T09:23:04.164Z,99274.75
2022-09-18T09:26:21.809Z,99279.84
2022-09-18T09:29:45.042Z,99270.50
2022-09-18T09:33:27.947Z,99270.94
2022-09-18T09:36:42.305Z,99271.50
2022-09-18T09:39:52.698Z,99292.03
2022-09-18T09:43:01.216Z,99293.56
2022-09-18T09:46:35.807Z,99269.63
2022-09-18T09:49:46.652Z,99279.63
2022-09-18T09:52:48.920Z,99277.09
2022-09-18T09:56:16.143Z,99283.69
2022-09-18T09:59:47.863Z,99283.16
2022-09-18T10:03:05.144Z,99280.81
2022-09-18T10:06:29.695Z,99285.03
2022-09-18T10:09:43.743Z,99298.88
2022-09-18T10:13:05.390Z,99299.69
2022-09-18T10:16:20.328Z,99296.75
2022-09-18T10:19:28.540Z,99292.91
2022-09-18T10:22:30.934Z,99295.31
2022-09-18T10:25:54.204Z,99296.13
2022-09-18T10:28:56.926Z,99305.31
2022-09-18T10:32:01.070Z,99311.38
2022-09-18T10:35:29.182Z,99300.16
2022-09-18T10:38:34.359Z,99303.28
2022-09-18T10:42:07.170Z,99306.28
2022-09-18T10:45:29.133Z,99308.69
2022-09-18T10:48:53.146Z,99311.84
2022-09-18T10:52:25.302Z,99314.59
2022-09-18T10:55:28.367Z,99315.34
2022-09-18T10:58:39.189Z,99308.25
2022-09-18T11:01:44.658Z,99312.97
2022-09-18T11:04:48.105Z,99303.44
2022-09-18T11:07:55.055Z,99313.84
2022-09-18T11:11:06.862Z,99326.25
2022-09-18T11:14:30.184Z,99313.31
2022-09-18T11:17:47.280Z,99317.84
2022-09-18T11:20:50.030Z,99311.97
2022-09-18T11:24:06.927Z,99321.25
2022-09-18T11:27:46.187Z,99319.50
2022-09-18T11:31:04.112Z,99307.03
2022-09-18T11:34:47.181Z,99324.13
2022-09-18T11:37:53.093Z,99338.03
2022-09-18T11:40:57.523Z,99325.38
2022-09-18T11:44:14.007Z,99331.22
2022-09-18T11:47:41.264Z,99345.41
2022-09-18T11:50:44.260Z,99348.97
2022-09-18T11:53:55.426Z,99340.81
2022-09-18T11:57:00.807Z,99347.53
2022-09-18T12:00:16.234Z,99356.72
2022-09-18T12:03:29.046Z,99360.06
2022-09-18T12:06:58.799Z,99359.84
2022-09-18T12:10:31.486Z,99369.59
2022-09-18T12:13:40.023Z,99374.19
2022-09-18T12:16:51.496Z,99365.63
2022-09-18T12:19:58.561Z,99361.88
2022-09-18T12:23:02.791Z,99368.69
2022-09-18T12:26:12.476Z,99361.56
2022-09-18T12:29:57.186Z,99357.50
2022-09-18T12:33:26.623Z,99365.88
2022-09-18T12:36:47.326Z,99373.19
2022-09-18T12:40:04.201Z,99370.38
2022-09-18T12:43:38.075Z,99364.94
2022-09-18T12:46:59.886Z,99369.31
2022-09-18T12:50:15.682Z,99385.03
2022-09-18T12:54:06.959Z,99380.66
2022-09-18T12:57:36.907Z,99372.19
2022-09-18T13:00:41.163Z,99376.75
2022-09-18T13:03:43.246Z,99368.88
2022-09-18T13:06:55.407Z,99375.97
2022-09-18T13:10:42.760Z,99368.56
2022-09-18T13:14:05.720Z,99372.50
2022-09-18T13:17:19.918Z,99346.63
2022-09-18T13:20:34.439Z,99366.22
2022-09-18T13:23:40.770Z,99372.88
2022-09-18T13:26:42.909Z,99369.69
2022-09-18T13:29:54.090Z,99373.53
2022-09-18T13:32:57.761Z,99372.03
2022-09-18T13:35:59.866Z,99371.50
2022-09-18T13:39:14.829Z,99384.47
2022-09-18T13:42:34.167Z,99383.44
2022-09-18T13:45:37.975Z,99385.81
2022-09-18T13:48:39.931Z,99385.16
2022-09-18T13:51:42.084Z,99386.59
2022-09-18T13:55:20.126Z,99382.63
2022-09-18T13:58:31.707Z,99394.00
2022-09-18T14:01:42.989Z,99391.75
2022-09-18T14:04:48.475Z,99393.53
2022-09-18T14:08:04.307Z,99393.13
2022-09-18T14:11:16.255Z,99392.19
2022-09-18T14:14:22.887Z,99389.97
2022-09-18T14:17:25.798Z,99385.28
2022-09-18T14:20:27.898Z,99387.38
2022-09-18T14:23:35.890Z,99387.50
2022-09-18T14:26:38.549Z,99387.13
2022-09-18T14:29:40.871Z,99388.84
2022-09-18T14:33:03.659Z,99389.84
2022-09-18T14:36:06.481Z,99390.09
2022-09-18T14:39:35.807Z,99388.03
2022-09-18T14:42:40.136Z,99397.88
2022-09-18T14:45:42.272Z,99401.69
2022-09-18T14:48:44.363Z,99400.31
2022-09-18T14:52:03.186Z,99388.66
2022-09-18T14:55:12.211Z,99395.56
2022-09-18T14:58:17.927Z,99394.25
2022-09-18T15:01:31.604Z,99390.81
2022-09-18T15:04:33.693Z,99386.94
2022-09-18T15:07:38.166Z,99386.72
2022-09-18T15:10:40.335Z,99394.25
2022-09-18T15:13:42.443Z,99398.09
2022-09-18T15:16:44.739Z,99407.22
2022-09-18T15:20:22.731Z,99406.69
2022-09-18T15:23:38.875Z,99408.88
2022-09-18T15:26:48.256Z,99418.00
2022-09-18T15:30:06.751Z,99416.59
2022-09-18T15:33:18.815Z,99424.31
2022-09-18T15:36:35.480Z,99419.47
2022-09-18T15:39:42.509Z,99419.94
2022-09-18T15:42:59.180Z,99424.06
2022-09-18T15:46:11.857Z,99426.97
2022-09-18T15:49:30.659Z,99425.81
2022-09-18T15:52:55.116Z,99421.63
2022-09-18T15:56:02.202Z,99430.47
2022-09-18T15:59:07.252Z,99421.34
2022-09-18T16:02:37.750Z,99427.16
2022-09-18T16:05:40.556Z,99431.84
2022-09-18T16:08:42.670Z,99437.50
2022-09-18T16:11:46.141Z,99435.00
2022-09-18T16:15:11.251Z,99439.47
2022-09-18T16:18:16.209Z,99437.94
2022-09-18T16:21:18.670Z,99443.44
2022-09-18T16:24:30.867Z,99450.16
2022-09-18T16:27:32.901Z,99456.28
2022-09-18T16:30:37.315Z,99450.53
2022-09-18T16:34:27.495Z,99457.53
2022-09-18T16:37:31.000Z,99451.00
2022-09-18T16:40:33.262Z,99447.47
2022-09-18T16:43:35.876Z,99458.22
2022-09-18T16:46:49.638Z,99452.00
2022-09-18T16:49:51.786Z,99455.66
2022-09-18T16:52:54.037Z,99464.00
2022-09-18T16:55:57.360Z,99466.97
2022-09-18T16:59:00.975Z,99460.78
2022-09-18T17:02:04.508Z,99467.50
2022-09-18T17:05:07.697Z,99466.84
2022-09-18T17:08:09.867Z,99466.91
2022-09-18T17:11:12.018Z,99473.22
2022-09-18T17:14:14.066Z,99466.09
2022-09-18T17:17:16.305Z,99474.25
2022-09-18T17:20:18.934Z,99469.91
2022-09-18T17:23:21.023Z,99481.38
2022-09-18T17:26:23.316Z,99478.59
2022-09-18T17:29:25.500Z,99492.75
2022-09-18T17:32:27.546Z,99487.88
2022-09-18T17:35:29.655Z,99484.97
2022-09-18T17:38:33.891Z,99483.84
2022-09-18T17:41:35.992Z,99490.69
2022-09-18T17:44:38.074Z,99486.38
2022-09-18T17:47:40.127Z,99501.44
2022-09-18T17:50:42.163Z,99495.34
2022-09-18T17:53:45.764Z,99515.00
2022-09-18T17:56:47.859Z,99517.97
2022-09-18T17:59:49.907Z,99516.06
2022-09-18T18:02:52.107Z,99520.03
2022-09-18T18:05:58.255Z,99526.03
2022-09-18T18:09:00.710Z,99529.66
2022-09-18T18:12:03.410Z,99539.72
2022-09-18T18:15:06.127Z,99540.09
2022-09-18T18:18:08.237Z,99532.53
2022-09-18T18:21:10.750Z,99544.84
2022-09-18T18:24:16.938Z,99557.22
2022-09-18T18:27:21.070Z,99551.44
2022-09-18T18:30:24.155Z,99556.75
2022-09-18T18:33:26.221Z,99562.50
2022-09-18T18:36:30.551Z,99560.34
2022-09-18T18:39:32.668Z,99564.03
2022-09-18T18:42:34.702Z,99574.56
2022-09-18T18:45:37.499Z,99573.16
2022-09-18T18:48:40.736Z,99576.34
2022-09-18T18:51:48.126Z,99583.16
2022-09-18T18:54:50.207Z,99577.69
2022-09-18T18:57:52.730Z,99579.91
2022-09-18T19:00:55.544Z,99589.81
2022-09-18T19:04:09.354Z,99597.72
2022-09-18T19:07:12.001Z,99598.69
2022-09-18T19:10:14.992Z,99597.50
2022-09-18T19:13:17.307Z,99605.75
2022-09-18T19:16:19.839Z,99608.31
2022-09-18T19:19:23.704Z,99605.47
2022-09-18T19:22:25.813Z,99605.84
2022-09-18T19:25:27.990Z,99603.72
2022-09-18T19:28:30.787Z,99604.38
2022-09-18T19:31:34.133Z,99598.63
2022-09-18T19:34:36.289Z,99607.81
2022-09-18T19:37:38.355Z,99605.63
2022-09-18T19:40:40.569Z,99617.03
2022-09-18T19:43:42.700Z,99618.03
2022-09-18T19:46:46.259Z,99617.69
2022-09-18T19:49:49.847Z,99623.81
2022-09-18T19:52:52.072Z,99625.81
2022-09-18T19:55:54.294Z,99632.59
2022-09-18T19:58:56.362Z,99636.34
2022-09-18T20:01:58.491Z,99631.94
2022-09-18T20:05:01.993Z,99630.28
2022-09-18T20:08:06.410Z,99639.59
2022-09-18T20:11:08.790Z,99636.72
2022-09-18T20:14:11.208Z,99638.25
2022-09-18T20:17:13.605Z,99636.72
2022-09-18T20:20:16.542Z,99637.72
2022-09-18T20:23:18.962Z,99621.75
2022-09-18T20:26:21.021Z,99630.13
2022-09-18T20:29:23.104Z,99630.81
2022-09-18T20:32:25.178Z,99633.28
2022-09-18T20:35:27.218Z,99634.94
2022-09-18T20:38:33.037Z,99632.16
2022-09-18T20:41:35.726Z,99630.66
2022-09-18T20:44:38.197Z,99631.41
2022-09-18T20:47:40.342Z,99642.94
2022-09-18T20:50:43.231Z,99642.81
2022-09-18T20:53:46.493Z,99649.13
2022-09-18T20:56:48.596Z,99643.16
2022-09-18T20:59:51.161Z,99636.66
2022-09-18T21:02:53.411Z,99644.38
2022-09-18T21:06:12.768Z,99648.41
2022-09-18T21:09:17.671Z,99649.41
2022-09-18T21:12:19.818Z,99651.31
2022-09-18T21:15:21.847Z,99651.97
2022-09-18T21:18:24.013Z,99651.34
2022-09-18T21:21:27.482Z,99657.00
2022-09-18T21:24:30.735Z,99651.84
2022-09-18T21:27:32.787Z,99657.38
2022-09-18T21:30:34.851Z,99659.03
2022-09-18T21:33:40.730Z,99642.66
2022-09-18T21:36:46.022Z,99657.75
2022-09-18T21:39:48.161Z,99657.41
2022-09-18T21:42:50.698Z,99655.19
2022-09-18T21:45:52.752Z,99659.53
2022-09-18T21:48:55.924Z,99658.41
2022-09-18T21:52:04.331Z,99655.13
2022-09-18T21:55:06.906Z,99660.56
2022-09-18T21:58:08.999Z,99663.75
2022-09-18T22:01:19.644Z,99660.03
2022-09-18T22:04:26.197Z,99660.53
2022-09-18T22:07:28.990Z,99663.22
2022-09-18T22:10:31.127Z,99669.41
2022-09-18T22:13:33.258Z,99670.19
2022-09-18T22:16:35.556Z,99672.38
2022-09-18T22:19:41.306Z,99666.41
2022-09-18T22:22:43.993Z,99658.72
2022-09-18T22:25:46.075Z,99662.16
2022-09-18T22:28:56.223Z,99669.41
2022-09-18T22:31:59.544Z,99665.91
2022-09-18T22:35:01.675Z,99665.53
2022-09-18T22:38:03.778Z,99663.81
2022-09-18T22:41:06.810Z,99673.03
2022-09-18T22:44:09.348Z,99673.97
2022-09-18T22:47:11.429Z,99672.94
2022-09-18T22:50:13.564Z,99673.22
2022-09-18T22:53:15.688Z,99667.47
2022-09-18T22:56:18.611Z,99666.19
2022-09-18T22:59:22.512Z,99665.00
2022-09-18T23:02:24.697Z,99671.31
2022-09-18T23:05:27.183Z,99661.53
2022-09-18T23:08:31.867Z,99673.34
2022-09-18T23:11:34.582Z,99679.28
2022-09-18T23:14:36.703Z,99659.63
2022-09-18T23:17:38.840Z,99656.66
2022-09-18T23:20:41.010Z,99660.31
2022-09-18T23:23:44.198Z,99667.66
2022-09-18T23:26:47.879Z,99671.78
2022-09-18T23:29:50.631Z,99663.69
2022-09-18T23:32:52.727Z,99660.31
2022-09-18T23:35:54.985Z,99671.00
2022-09-18T23:39:05.219Z,99670.03
2022-09-18T23:42:08.880Z,99670.38
2022-09-18T23:45:11.253Z,99665.06
2022-09-18T23:48:13.302Z,99655.31
2022-09-18T23:51:16.176Z,99662.00
2022-09-18T23:54:24.017Z,99653.25
2022-09-18T23:57:26.793Z,99650.13
